createdAt,value
2022-12-01T00:01:22.692Z,3.41
2022-12-01T00:03:50.249Z,3.21
2022-12-01T00:06:20.128Z,3.07
2022-12-01T00:09:08.756Z,2.97
2022-12-01T00:11:37.927Z,2.85
2022-12-01T00:14:05.691Z,2.77
2022-12-01T00:16:34.127Z,2.65
2022-12-01T00:19:01.927Z,2.55
2022-12-01T00:21:29.045Z,2.54
2022-12-01T00:23:57.903Z,2.51
2022-12-01T00:26:27.515Z,2.39
2022-12-01T00:28:56.841Z,2.39
2022-12-01T00:31:24.159Z,2.42
2022-12-01T00:33:51.592Z,2.43
2022-12-01T00:36:18.673Z,2.38
2022-12-01T00:38:45.799Z,2.33
2022-12-01T00:41:13.239Z,2.40
2022-12-01T00:43:41.227Z,2.29
2022-12-01T00:46:08.822Z,2.27
2022-12-01T00:48:36.173Z,2.27
2022-12-01T00:51:03.314Z,2.23
2022-12-01T00:53:30.439Z,2.20
2022-12-01T00:55:57.896Z,2.24
2022-12-01T00:58:25.425Z,2.17
2022-12-01T01:01:00.329Z,2.11
2022-12-01T01:03:28.792Z,1.98
2022-12-01T01:05:55.866Z,1.99
2022-12-01T01:08:22.861Z,1.90
2022-12-01T01:10:50.802Z,1.88
2022-12-01T01:13:17.889Z,1.86
2022-12-01T01:15:44.898Z,1.82
2022-12-01T01:18:12.457Z,1.78
2022-12-01T01:20:39.572Z,1.82
2022-12-01T01:23:06.732Z,1.70
2022-12-01T01:25:34.244Z,1.68
2022-12-01T01:28:01.249Z,1.60
2022-12-01T01:30:28.417Z,1.62
2022-12-01T01:32:55.949Z,1.62
2022-12-01T01:35:23.022Z,1.72
2022-12-01T01:37:50.981Z,1.69
2022-12-01T01:40:18.767Z,1.69
2022-12-01T01:42:46.237Z,1.66
2022-12-01T01:45:29.620Z,1.60
2022-12-01T01:48:00.248Z,1.61
2022-12-01T01:50:28.589Z,1.64
2022-12-01T01:53:01.416Z,1.59
2022-12-01T01:55:31.921Z,1.46
2022-12-01T01:57:59.793Z,1.44
2022-12-01T02:00:26.825Z,1.35
2022-12-01T02:02:56.324Z,1.32
2022-12-01T02:05:26.898Z,1.31
2022-12-01T02:07:57.066Z,1.37
2022-12-01T02:10:48.528Z,1.44
2022-12-01T02:13:27.816Z,1.20
2022-12-01T02:16:06.989Z,1.06
2022-12-01T02:18:50.736Z,1.00
2022-12-01T02:21:59.051Z,0.97
2022-12-01T02:24:26.064Z,0.84
2022-12-01T02:27:01.459Z,1.07
2022-12-01T02:30:06.035Z,1.00
2022-12-01T02:33:00.411Z,0.87
2022-12-01T02:35:42.446Z,0.79
2022-12-01T02:38:38.564Z,0.92
2022-12-01T02:41:10.407Z,0.98
2022-12-01T02:43:45.394Z,1.08
2022-12-01T02:46:19.869Z,1.03
2022-12-01T02:48:51.760Z,1.08
2022-12-01T02:51:29.005Z,1.14
2022-12-01T02:53:58.868Z,1.21
2022-12-01T02:56:26.229Z,1.02
2022-12-01T02:58:53.550Z,1.13
2022-12-01T03:01:50.843Z,1.14
2022-12-01T03:04:31.962Z,1.25
2022-12-01T03:07:08.307Z,1.19
2022-12-01T03:09:51.162Z,1.19
2022-12-01T03:12:46.363Z,1.20
2022-12-01T03:15:35.805Z,1.10
2022-12-01T03:18:16.218Z,1.03
2022-12-01T03:20:57.071Z,1.08
2022-12-01T03:23:29.739Z,1.05
2022-12-01T03:26:02.097Z,1.15
2022-12-01T03:28:33.458Z,1.11
2022-12-01T03:31:11.946Z,1.05
2022-12-01T03:33:47.159Z,1.16
2022-12-01T03:36:22.828Z,1.25
2022-12-01T03:38:55.685Z,1.22
2022-12-01T03:41:29.784Z,1.22
2022-12-01T03:44:04.015Z,1.24
2022-12-01T03:46:49.006Z,1.31
2022-12-01T03:49:18.297Z,1.31
2022-12-01T03:52:04.266Z,1.36
2022-12-01T03:54:38.535Z,1.36
2022-12-01T03:57:10.433Z,1.41
2022-12-01T03:59:41.226Z,1.28
2022-12-01T04:02:08.461Z,1.36
2022-12-01T04:04:35.881Z,1.31
2022-12-01T04:07:03.618Z,1.26
2022-12-01T04:09:30.696Z,1.36
2022-12-01T04:12:16.419Z,1.37
2022-12-01T04:14:43.448Z,1.39
2022-12-01T04:17:10.725Z,1.49
2022-12-01T04:19:37.743Z,1.49
2022-12-01T04:22:04.865Z,1.44
2022-12-01T04:24:33.736Z,1.50
2022-12-01T04:27:00.772Z,1.43
2022-12-01T04:29:27.746Z,1.40
2022-12-01T04:31:55.027Z,1.37
2022-12-01T04:34:22.120Z,1.33
2022-12-01T04:36:49.176Z,1.28
2022-12-01T04:39:16.892Z,1.25
2022-12-01T04:41:43.918Z,1.15
2022-12-01T04:44:11.408Z,1.11
2022-12-01T04:46:38.868Z,1.09
2022-12-01T04:49:06.166Z,1.07
2022-12-01T04:51:33.295Z,1.08
2022-12-01T04:54:02.322Z,1.05
2022-12-01T04:56:29.305Z,0.93
2022-12-01T04:58:56.354Z,0.84
2022-12-01T05:01:23.856Z,0.89
2022-12-01T05:03:51.092Z,0.81
2022-12-01T05:06:21.801Z,0.73
2022-12-01T05:08:50.420Z,0.71
2022-12-01T05:11:18.837Z,0.66
2022-12-01T05:13:47.688Z,0.61
2022-12-01T05:16:21.303Z,0.72
2022-12-01T05:19:18.280Z,0.62
2022-12-01T05:21:47.358Z,0.57
2022-12-01T05:24:15.410Z,0.65
2022-12-01T05:26:43.778Z,0.54
2022-12-01T05:29:12.460Z,0.58
2022-12-01T05:31:40.131Z,0.45
2022-12-01T05:34:08.187Z,0.41
2022-12-01T05:36:36.447Z,0.35
2022-12-01T05:39:04.599Z,0.33
2022-12-01T05:41:31.709Z,0.24
2022-12-01T05:43:59.029Z,0.14
2022-12-01T05:46:26.063Z,0.08
2022-12-01T05:48:53.171Z,0.18
2022-12-01T05:51:20.641Z,0.06
2022-12-01T05:53:47.678Z,0.06
2022-12-01T05:56:14.690Z,0.07
2022-12-01T05:58:42.011Z,0.00
2022-12-01T06:01:09.253Z,-0.12
2022-12-01T06:03:36.579Z,-0.14
2022-12-01T06:06:03.825Z,-0.19
2022-12-01T06:08:30.842Z,-0.17
2022-12-01T06:10:58.150Z,-0.15
2022-12-01T06:13:25.521Z,-0.26
2022-12-01T06:16:04.304Z,-0.31
2022-12-01T06:18:35.144Z,-0.25
2022-12-01T06:21:03.060Z,-0.25
2022-12-01T06:23:30.846Z,-0.36
2022-12-01T06:26:01.675Z,-0.42
2022-12-01T06:28:28.805Z,-0.46
2022-12-01T06:31:02.602Z,-0.42
2022-12-01T06:33:31.956Z,-0.47
2022-12-01T06:36:04.415Z,-0.44
2022-12-01T06:38:33.821Z,-0.26
2022-12-01T06:41:01.221Z,-0.17
2022-12-01T06:43:28.749Z,-0.12
2022-12-01T06:46:01.285Z,-0.16
2022-12-01T06:48:30.794Z,-0.27
2022-12-01T06:50:58.984Z,-0.27
2022-12-01T06:53:28.361Z,-0.24
2022-12-01T06:56:03.473Z,-0.22
2022-12-01T06:58:31.099Z,-0.19
2022-12-01T07:00:59.151Z,-0.12
2022-12-01T07:03:26.836Z,-0.06
2022-12-01T07:05:59.363Z,-0.04
2022-12-01T07:08:27.381Z,0.09
2022-12-01T07:10:58.605Z,0.06
2022-12-01T07:13:30.090Z,0.02
2022-12-01T07:16:03.593Z,0.13
2022-12-01T07:18:31.534Z,0.20
2022-12-01T07:21:03.262Z,0.42
2022-12-01T07:23:31.308Z,0.59
2022-12-01T07:26:18.809Z,0.63
2022-12-01T07:28:46.315Z,0.59
2022-12-01T07:31:16.276Z,0.61
2022-12-01T07:33:43.722Z,0.65
2022-12-01T07:36:12.244Z,0.74
2022-12-01T07:38:39.844Z,0.85
2022-12-01T07:41:07.966Z,0.90
2022-12-01T07:43:35.911Z,0.94
2022-12-01T07:46:08.855Z,1.02
2022-12-01T07:48:37.913Z,1.22
2022-12-01T07:51:06.306Z,1.31
2022-12-01T07:53:33.503Z,1.51
2022-12-01T07:56:04.357Z,1.64
2022-12-01T07:58:35.688Z,1.71
2022-12-01T08:01:14.754Z,1.85
2022-12-01T08:03:43.014Z,1.95
2022-12-01T08:06:10.778Z,2.27
2022-12-01T08:08:40.685Z,2.40
2022-12-01T08:11:12.297Z,2.66
2022-12-01T08:13:40.778Z,2.73
2022-12-01T08:16:10.516Z,2.98
2022-12-01T08:18:39.800Z,2.96
2022-12-01T08:21:09.202Z,3.01
2022-12-01T08:23:36.627Z,3.11
2022-12-01T08:26:05.445Z,3.35
2022-12-01T08:28:35.358Z,3.56
2022-12-01T08:31:09.009Z,3.57
2022-12-01T08:33:36.716Z,3.68
2022-12-01T08:36:05.337Z,3.91
2022-12-01T08:38:32.534Z,3.98
2022-12-01T08:41:01.358Z,4.02
2022-12-01T08:43:56.111Z,4.15
2022-12-01T08:46:15.879Z,4.26
2022-12-01T08:48:43.294Z,4.48
2022-12-01T08:51:15.736Z,4.52
2022-12-01T08:53:47.234Z,4.55
2022-12-01T08:56:21.503Z,4.70
2022-12-01T08:58:48.686Z,4.77
2022-12-01T09:01:16.694Z,4.88
2022-12-01T09:03:44.510Z,4.93
2022-12-01T09:06:13.070Z,5.00
2022-12-01T09:08:41.252Z,5.00
2022-12-01T09:11:15.929Z,5.16
2022-12-01T09:13:44.332Z,5.26
2022-12-01T09:16:14.217Z,5.22
2022-12-01T09:18:42.625Z,5.29
2022-12-01T09:21:18.919Z,5.33
2022-12-01T09:23:46.855Z,5.28
2022-12-01T09:26:18.522Z,5.35
2022-12-01T09:28:52.322Z,5.36
2022-12-01T09:31:20.823Z,5.45
2022-12-01T09:33:48.223Z,5.48
2022-12-01T09:36:15.381Z,5.65
2022-12-01T09:38:42.775Z,5.79
2022-12-01T09:41:21.783Z,5.82
2022-12-01T09:43:58.465Z,5.79
2022-12-01T09:46:32.745Z,5.74
2022-12-01T09:49:03.378Z,5.80
2022-12-01T09:51:34.823Z,5.84
2022-12-01T09:54:03.095Z,5.76
2022-12-01T09:56:36.432Z,5.55
2022-12-01T09:59:08.247Z,5.50
2022-12-01T10:01:41.622Z,5.55
2022-12-01T10:04:44.027Z,5.49
2022-12-01T10:07:18.769Z,5.52
2022-12-01T10:09:57.527Z,5.59
2022-12-01T10:12:27.882Z,5.76
2022-12-01T10:15:32.964Z,5.76
2022-12-01T10:18:21.838Z,5.91
2022-12-01T10:21:11.111Z,5.99
2022-12-01T10:23:56.763Z,6.28
2022-12-01T10:26:35.035Z,6.47
2022-12-01T10:29:12.265Z,6.71
2022-12-01T10:31:53.511Z,6.82
2022-12-01T10:34:27.017Z,6.79
2022-12-01T10:36:54.922Z,6.65
2022-12-01T10:39:36.367Z,6.43
2022-12-01T10:42:37.682Z,6.25
2022-12-01T10:45:09.703Z,6.20
2022-12-01T10:47:37.468Z,6.07
2022-12-01T10:50:04.902Z,6.04
2022-12-01T10:52:31.818Z,6.15
2022-12-01T10:54:59.815Z,6.13
2022-12-01T10:57:29.647Z,6.15
2022-12-01T11:00:07.204Z,6.04
2022-12-01T11:02:35.867Z,6.09
2022-12-01T11:05:07.171Z,5.96
2022-12-01T11:07:47.858Z,5.93
2022-12-01T11:10:26.039Z,5.91
2022-12-01T11:12:57.157Z,5.83
2022-12-01T11:15:30.892Z,5.62
2022-12-01T11:18:06.402Z,5.69
2022-12-01T11:20:33.632Z,5.55
2022-12-01T11:23:10.059Z,5.63
2022-12-01T11:25:37.198Z,5.77
2022-12-01T11:28:05.392Z,5.90
2022-12-01T11:30:33.419Z,5.90
2022-12-01T11:33:03.201Z,5.97
2022-12-01T11:35:37.736Z,6.11
2022-12-01T11:38:28.707Z,6.21
2022-12-01T11:40:57.685Z,6.25
2022-12-01T11:43:32.167Z,6.15
2022-12-01T11:46:06.626Z,6.08
2022-12-01T11:48:36.415Z,6.09
2022-12-01T11:51:06.875Z,6.09
2022-12-01T11:53:39.307Z,5.87
2022-12-01T11:56:23.572Z,5.80
2022-12-01T11:58:58.061Z,5.86
2022-12-01T12:01:38.540Z,5.96
2022-12-01T12:04:33.291Z,6.03
2022-12-01T12:07:03.261Z,6.07
2022-12-01T12:10:24.812Z,6.24
2022-12-01T12:13:15.520Z,6.39
2022-12-01T12:15:57.986Z,6.23
2022-12-01T12:18:39.913Z,6.27
2022-12-01T12:21:25.584Z,6.22
2022-12-01T12:24:08.613Z,6.33
2022-12-01T12:26:59.861Z,6.36
2022-12-01T12:29:48.876Z,6.32
2022-12-01T12:32:34.547Z,6.45
2022-12-01T12:35:13.887Z,6.51
2022-12-01T12:38:08.703Z,6.44
2022-12-01T12:40:54.793Z,6.42
2022-12-01T12:43:49.739Z,6.29
2022-12-01T12:46:36.345Z,6.23
2022-12-01T12:49:21.682Z,6.25
2022-12-01T12:52:08.410Z,6.33
2022-12-01T12:54:46.164Z,6.35
2022-12-01T12:57:31.264Z,6.40
2022-12-01T13:00:15.528Z,6.29
2022-12-01T13:02:48.565Z,6.11
2022-12-01T13:05:20.937Z,6.09
2022-12-01T13:08:14.222Z,6.05
2022-12-01T13:10:58.788Z,6.17
2022-12-01T13:13:43.501Z,6.11
2022-12-01T13:16:15.339Z,6.09
2022-12-01T13:19:28.148Z,6.11
2022-12-01T13:21:56.444Z,6.00
2022-12-01T13:24:25.486Z,5.96
2022-12-01T13:27:10.820Z,6.11
2022-12-01T13:29:43.861Z,6.15
2022-12-01T13:32:36.166Z,6.05
2022-12-01T13:35:24.999Z,6.07
2022-12-01T13:37:53.012Z,6.06
2022-12-01T13:40:27.862Z,6.00
2022-12-01T13:43:10.252Z,5.82
2022-12-01T13:45:40.587Z,5.84
2022-12-01T13:48:49.886Z,5.92
2022-12-01T13:51:17.257Z,5.96
2022-12-01T13:54:26.206Z,5.91
2022-12-01T13:57:04.899Z,5.88
2022-12-01T14:00:10.762Z,5.95
2022-12-01T14:02:40.515Z,5.95
2022-12-01T14:05:23.440Z,5.94
2022-12-01T14:07:52.531Z,6.07
2022-12-01T14:10:31.043Z,6.00
2022-12-01T14:13:03.490Z,5.95
2022-12-01T14:15:34.688Z,5.93
2022-12-01T14:18:18.879Z,5.88
2022-12-01T14:20:48.735Z,5.76
2022-12-01T14:23:29.014Z,5.84
2022-12-01T14:26:18.582Z,5.69
2022-12-01T14:29:03.541Z,5.63
2022-12-01T14:31:34.162Z,5.51
2022-12-01T14:34:31.641Z,5.50
2022-12-01T14:37:06.861Z,5.53
2022-12-01T14:39:40.360Z,5.51
2022-12-01T14:42:10.438Z,5.43
2022-12-01T14:44:47.636Z,5.30
2022-12-01T14:47:22.914Z,5.24
2022-12-01T14:49:52.823Z,5.17
2022-12-01T14:52:28.990Z,5.09
2022-12-01T14:55:03.907Z,5.04
2022-12-01T14:57:37.711Z,4.96
2022-12-01T15:00:18.470Z,4.89
2022-12-01T15:02:55.036Z,4.81
2022-12-01T15:05:27.560Z,4.77
2022-12-01T15:08:18.772Z,4.73
2022-12-01T15:10:59.944Z,4.68
2022-12-01T15:13:44.058Z,4.64
2022-12-01T15:16:19.960Z,4.62
2022-12-01T15:18:48.057Z,4.60
2022-12-01T15:21:23.249Z,4.57
2022-12-01T15:24:02.077Z,4.54
2022-12-01T15:26:35.221Z,4.51
2022-12-01T15:29:05.697Z,4.49
2022-12-01T15:31:34.675Z,4.45
2022-12-01T15:34:02.156Z,4.42
2022-12-01T15:36:29.571Z,4.37
2022-12-01T15:39:03.612Z,4.31
2022-12-01T15:41:35.780Z,4.27
2022-12-01T15:44:05.368Z,4.21
2022-12-01T15:46:37.142Z,4.22
2022-12-01T15:49:27.650Z,4.20
2022-12-01T15:52:03.709Z,4.15
2022-12-01T15:54:31.624Z,4.12
2022-12-01T15:56:59.306Z,4.09
2022-12-01T15:59:35.123Z,4.05
2022-12-01T16:02:32.020Z,4.01
2022-12-01T16:05:01.640Z,3.94
2022-12-01T16:08:10.905Z,3.86
2022-12-01T16:10:34.192Z,3.80
2022-12-01T16:13:39.769Z,3.77
2022-12-01T16:16:38.895Z,3.74
2022-12-01T16:19:08.913Z,3.71
2022-12-01T16:21:44.152Z,3.67
2022-12-01T16:24:25.864Z,3.64
2022-12-01T16:26:57.537Z,3.61
2022-12-01T16:29:27.558Z,3.58
2022-12-01T16:32:19.218Z,3.58
2022-12-01T16:34:46.737Z,3.55
2022-12-01T16:37:15.264Z,3.56
2022-12-01T16:39:42.786Z,3.53
2022-12-01T16:42:13.683Z,3.50
2022-12-01T16:44:41.984Z,3.48
2022-12-01T16:47:23.734Z,3.48
2022-12-01T16:49:52.217Z,3.42
2022-12-01T16:52:43.758Z,3.42
2022-12-01T16:55:20.614Z,3.42
2022-12-01T16:57:47.580Z,3.43
2022-12-01T17:00:15.313Z,3.32
2022-12-01T17:02:42.469Z,3.32
2022-12-01T17:05:11.216Z,3.25
2022-12-01T17:07:38.714Z,3.27
2022-12-01T17:10:07.114Z,3.22
2022-12-01T17:12:34.105Z,3.17
2022-12-01T17:15:01.449Z,3.12
2022-12-01T17:17:29.670Z,3.09
2022-12-01T17:19:57.793Z,3.11
2022-12-01T17:22:25.202Z,3.05
2022-12-01T17:24:54.516Z,2.94
2022-12-01T17:27:23.167Z,2.91
2022-12-01T17:29:50.482Z,2.84
2022-12-01T17:32:17.557Z,2.81
2022-12-01T17:34:44.583Z,2.79
2022-12-01T17:37:14.935Z,2.77
2022-12-01T17:39:46.653Z,2.77
2022-12-01T17:42:13.964Z,2.71
2022-12-01T17:44:40.971Z,2.68
2022-12-01T17:47:07.987Z,2.64
2022-12-01T17:49:36.454Z,2.62
2022-12-01T17:52:07.183Z,2.55
2022-12-01T17:54:34.328Z,2.54
2022-12-01T17:57:01.701Z,2.45
2022-12-01T17:59:28.749Z,2.38
2022-12-01T18:01:55.902Z,2.32
2022-12-01T18:04:23.256Z,2.29
2022-12-01T18:06:54.287Z,2.23
2022-12-01T18:09:21.944Z,2.20
2022-12-01T18:11:49.615Z,2.21
2022-12-01T18:14:17.847Z,2.12
2022-12-01T18:16:45.346Z,2.06
2022-12-01T18:19:13.034Z,2.11
2022-12-01T18:21:40.492Z,2.06
2022-12-01T18:24:11.287Z,2.02
2022-12-01T18:26:40.590Z,1.97
2022-12-01T18:29:12.207Z,1.98
2022-12-01T18:31:40.019Z,1.97
2022-12-01T18:34:09.023Z,1.93
2022-12-01T18:36:38.180Z,1.94
2022-12-01T18:39:07.899Z,1.92
2022-12-01T18:41:36.087Z,1.88
2022-12-01T18:44:06.725Z,1.86
2022-12-01T18:46:34.692Z,1.83
2022-12-01T18:49:02.997Z,1.80
2022-12-01T18:51:31.907Z,1.79
2022-12-01T18:54:01.142Z,1.81
2022-12-01T18:56:29.526Z,1.78
2022-12-01T18:59:02.177Z,1.72
2022-12-01T19:01:36.345Z,1.70
2022-12-01T19:04:04.955Z,1.67
2022-12-01T19:06:36.141Z,1.68
2022-12-01T19:09:05.517Z,1.66
2022-12-01T19:11:33.463Z,1.62
2022-12-01T19:16:55.990Z,1.59
2022-12-01T19:19:23.397Z,1.57
2022-12-01T19:21:51.097Z,1.59
2022-12-01T19:24:19.612Z,1.62
2022-12-01T19:26:46.610Z,1.64
2022-12-01T19:29:13.605Z,1.62
2022-12-01T19:31:40.980Z,1.64
2022-12-01T19:34:08.084Z,1.63
2022-12-01T19:36:35.112Z,1.66
2022-12-01T19:39:04.361Z,1.62
2022-12-01T19:41:36.941Z,1.65
2022-12-01T19:44:05.108Z,1.67
2022-12-01T19:46:32.344Z,1.67
2022-12-01T19:49:01.349Z,1.67
2022-12-01T19:51:37.011Z,1.70
2022-12-01T19:54:06.313Z,1.66
2022-12-01T19:56:33.762Z,1.64
2022-12-01T19:59:00.899Z,1.64
2022-12-01T20:01:28.375Z,1.62
2022-12-01T20:03:55.803Z,1.63
2022-12-01T20:06:28.277Z,1.56
2022-12-01T20:09:00.069Z,1.58
2022-12-01T20:11:32.867Z,1.58
2022-12-01T20:14:00.257Z,1.52
2022-12-01T20:16:28.394Z,1.49
2022-12-01T20:18:55.909Z,1.49
2022-12-01T20:21:29.244Z,1.46
2022-12-01T20:24:08.517Z,1.42
2022-12-01T20:26:47.503Z,1.40
2022-12-01T20:29:20.878Z,1.38
2022-12-01T20:31:50.217Z,1.33
2022-12-01T20:34:21.724Z,1.30
2022-12-01T20:36:49.051Z,1.28
2022-12-01T20:39:16.148Z,1.26
2022-12-01T20:41:44.535Z,1.21
2022-12-01T20:44:13.120Z,1.12
2022-12-01T20:46:45.773Z,1.09
2022-12-01T20:49:15.212Z,1.11
2022-12-01T20:51:42.689Z,1.00
2022-12-01T20:54:28.007Z,0.88
2022-12-01T20:56:58.965Z,0.84
2022-12-01T20:59:26.529Z,0.77
2022-12-01T21:01:53.700Z,0.72
2022-12-01T21:04:21.091Z,0.64
2022-12-01T21:06:49.934Z,0.64
2022-12-01T21:09:18.027Z,0.58
2022-12-01T21:12:06.518Z,0.52
2022-12-01T21:14:44.583Z,0.52
2022-12-01T21:17:26.475Z,0.47
2022-12-01T21:20:01.640Z,0.42
2022-12-01T21:22:30.253Z,0.33
2022-12-01T21:25:07.480Z,0.32
2022-12-01T21:27:34.785Z,0.28
2022-12-01T21:30:07.299Z,0.27
2022-12-01T21:32:34.961Z,0.27
2022-12-01T21:35:15.903Z,0.26
2022-12-01T21:37:43.568Z,0.31
2022-12-01T21:40:28.761Z,0.27
2022-12-01T21:43:01.305Z,0.29
2022-12-01T21:45:30.380Z,0.30
2022-12-01T21:48:05.857Z,0.38
2022-12-01T21:50:33.227Z,0.38
2022-12-01T21:53:01.154Z,0.41
2022-12-01T21:55:28.207Z,0.36
2022-12-01T21:57:55.225Z,0.44
2022-12-01T22:00:35.302Z,0.40
2022-12-01T22:03:08.581Z,0.42
2022-12-01T22:05:40.394Z,0.47
2022-12-01T22:08:07.730Z,0.43
2022-12-01T22:10:55.279Z,0.43
2022-12-01T22:13:26.145Z,0.37
2022-12-01T22:15:55.274Z,0.40
2022-12-01T22:18:25.406Z,0.39
2022-12-01T22:20:53.560Z,0.41
2022-12-01T22:23:27.767Z,0.44
2022-12-01T22:25:55.030Z,0.49
2022-12-01T22:28:24.696Z,0.59
2022-12-01T22:30:52.401Z,0.66
2022-12-01T22:33:23.339Z,0.77
2022-12-01T22:35:52.474Z,0.93
2022-12-01T22:38:20.278Z,1.00
2022-12-01T22:41:06.388Z,1.00
2022-12-01T22:43:41.401Z,1.06
2022-12-01T22:46:22.551Z,1.11
2022-12-01T22:48:52.712Z,1.17
2022-12-01T22:51:25.396Z,1.21
2022-12-01T22:54:12.880Z,1.31
2022-12-01T22:56:42.929Z,1.35
2022-12-01T22:59:22.658Z,1.41
2022-12-01T23:01:59.007Z,1.41
2022-12-01T23:04:33.143Z,1.38
2022-12-01T23:07:09.509Z,1.45
2022-12-01T23:09:40.873Z,1.53
2022-12-01T23:12:10.837Z,1.53
2022-12-01T23:14:47.430Z,1.54
2022-12-01T23:17:20.017Z,1.57
2022-12-01T23:19:49.830Z,1.59
2022-12-01T23:22:16.946Z,1.61
2022-12-01T23:24:44.174Z,1.63
2022-12-01T23:27:11.545Z,1.68
2022-12-01T23:29:38.603Z,1.64
2022-12-01T23:32:06.023Z,1.69
2022-12-01T23:34:33.906Z,1.67
2022-12-01T23:37:01.589Z,1.69
2022-12-01T23:39:35.237Z,1.71
2022-12-01T23:42:02.907Z,1.73
2022-12-01T23:44:40.821Z,1.71
2022-12-01T23:47:24.860Z,1.73
2022-12-01T23:49:59.021Z,1.68
2022-12-01T23:52:35.005Z,1.70
2022-12-01T23:55:07.847Z,1.69
2022-12-01T23:57:37.285Z,1.75
